• Join FlightAware (Why Join?)
  • Login
  • US Flag 
Trick or treat! (Boo!!) 
10:02PM EDT


 

Airport Tracker/Info


-or-


 

Live Flight TrackerFlight Track Log ✈ N216LB ✈ 13-May-2013 ✈ KSMX - KSTS

Flight Track Log - Related Links

Times and Time Zones

All times are in EDT time to prevent confusion due to time zone crossing. See the N216LB flight status page for this flight to view local times or setup timezone preferences in your user account.

Time Position Orientation Groundspeed Altitude Reporting Facility
EDT Latitude Longitude Course Direction KTS MPH feet Rate Location/Type
09:26PM 34.9158 -120.4728 315° West 121 139 600  Level Los Angeles Center
09:26PM 34.9278 -120.4875 315° West 124 143 900 780 Climbing Los Angeles Center
09:27PM 34.9522 -120.5217 311° West 133 153 1,800 720 Climbing Los Angeles Center
09:28PM 34.9558 -120.5269 310° West 134 154 1,900 780 Climbing Los Angeles Center
09:29PM 34.9808 -120.5439 331° Northwest 126 145 2,600 840 Climbing Los Angeles Center
09:29PM 34.9917 -120.5514 330° Northwest 122 140 2,800 660 Climbing Los Angeles Center
09:30PM 35.0139 -120.5675 329° Northwest 133 153 3,300 540 Climbing Los Angeles Center
09:30PM 35.0247 -120.5744 332° Northwest 133 153 3,400 480 Climbing Los Angeles Center
09:31PM 35.0606 -120.5994 330° Northwest 144 166 4,000 600 Climbing Los Angeles Center
09:32PM 35.0972 -120.6247 331° Northwest 150 173 4,700 720 Climbing Los Angeles Center
09:33PM 35.1314 -120.6511 328° Northwest 147 169 5,500 660 Climbing Los Angeles Center
09:34PM 35.1667 -120.6786 327° Northwest 149 171 6,100 600 Climbing Los Angeles Center
09:35PM 35.2050 -120.7031 332° Northwest 154 177 6,800 720 Climbing Los Angeles Center
09:36PM 35.2500 -120.7353 330° Northwest 156 180 7,600 720 Climbing Los Angeles Center
09:37PM 35.2892 -120.7603 332° Northwest 158 182 8,300 600 Climbing Los Angeles Center
09:38PM 35.3283 -120.7900 328° Northwest 163 188 8,900 600 Climbing Los Angeles Center
09:39PM 35.3664 -120.8200 327° Northwest 163 188 9,600 480 Climbing Los Angeles Center
09:40PM 35.4056 -120.8503 328° Northwest 166 191 9,900 60 Climbing Oakland Center
09:41PM 35.4517 -120.8875 327° Northwest 186 214 9,800 -60 Descending Oakland Center
09:42PM 35.5031 -120.9206 332° Northwest 201 231 9,800  Level Oakland Center
09:43PM 35.5506 -120.9539 330° Northwest 199 229 9,800  Level Oakland Center
09:44PM 35.5983 -120.9897 329° Northwest 200 230 9,900  Climbing Oakland Center
09:45PM 35.6453 -121.0269 327° Northwest 200 230 9,900  Level Oakland Center
09:46PM 35.6928 -121.0642 328° Northwest 201 231 9,900  Level Oakland Center
09:47PM 35.7414 -121.1008 329° Northwest 203 234 9,900  Level Oakland Center
09:48PM 35.7922 -121.1342 332° Northwest 204 235 9,900  Level Oakland Center
09:49PM 35.8419 -121.1697 330° Northwest 206 237 9,900  Level Oakland Center
09:50PM 35.8894 -121.2053 329° Northwest 203 234 9,900  Level Oakland Center
09:51PM 35.9472 -121.2492 328° Northwest 203 234 9,900  Level Oakland Center
09:52PM 35.9961 -121.2861 329° Northwest 204 235 9,900  Level Oakland Center
09:53PM 36.0458 -121.3233 329° Northwest 207 238 10,000  Climbing Oakland Center
09:54PM 36.0961 -121.3583 331° Northwest 207 238 10,000  Level Oakland Center
09:55PM 36.1464 -121.3944 330° Northwest 209 241 10,000 -60 Level Oakland Center
09:56PM 36.1967 -121.4311 330° Northwest 209 241 9,900  Descending Oakland Center
09:57PM 36.2453 -121.4661 330° Northwest 205 236 10,000  Climbing Oakland Center
09:58PM 36.2961 -121.5028 330° Northwest 209 241 10,000  Level Oakland Center
09:59PM 36.3450 -121.5394 329° Northwest 207 238 10,000  Level Oakland Center
10:00PM 36.3956 -121.5753 330° Northwest 208 239 10,000  Level Oakland Center
10:01PM 36.4456 -121.6119 329° Northwest 208 239 10,000  Level Oakland Center
10:02PM 36.5000 -121.6500 331° Northwest 204 235 10,000  Level Northern Cal TRACON
10:03PM 36.5500 -121.6833 332° Northwest 205 236 10,000  Level Northern Cal TRACON
10:04PM 36.6000 -121.7167 332° Northwest 205 236 10,000  Level Northern Cal TRACON
10:05PM 36.6333 -121.7500 321° Northwest 198 228 10,000  Level Northern Cal TRACON
10:06PM 36.7000 -121.8000 329° Northwest 301 346 10,000  Level Northern Cal TRACON
10:07PM 36.7333 -121.8333 321° Northwest 208 239 10,000  Level Northern Cal TRACON
10:08PM 36.7833 -121.8667 332° Northwest 204 235 10,000  Level Northern Cal TRACON
10:09PM 36.8333 -121.9000 332° Northwest 203 234 10,000  Level Northern Cal TRACON
10:10PM 36.8833 -121.9333 332° Northwest 201 231 10,000  Level Northern Cal TRACON
10:11PM 36.8994 -121.9575 310° West 203 234 10,000  Level Oakland Center
10:12PM 36.9461 -121.9950 327° Northwest 201 231 10,000  Level Oakland Center
10:13PM 36.9942 -122.0314 329° Northwest 201 231 10,000  Level Oakland Center
10:14PM 37.0406 -122.0692 327° Northwest 199 229 10,000  Level Oakland Center
10:15PM 37.0883 -122.1050 329° Northwest 200 230 10,000  Level Oakland Center
10:16PM 37.1350 -122.1417 328° Northwest 199 229 10,000  Level Oakland Center
10:17PM 37.1822 -122.1764 330° Northwest 198 228 10,000  Level Oakland Center
10:18PM 37.2297 -122.2119 329° Northwest 198 228 10,000  Level Oakland Center
10:19PM 37.2772 -122.2481 329° Northwest 200 230 10,000  Level Oakland Center
10:20PM 37.3244 -122.2839 329° Northwest 199 229 10,000  Level Oakland Center
10:21PM 37.3714 -122.3200 329° Northwest 198 228 10,000  Level Oakland Center
10:22PM 37.4286 -122.3619 330° Northwest 198 228 10,000  Level Oakland Center
10:23PM 37.4753 -122.3967 329° Northwest 196 226 10,000  Level Oakland Center
10:24PM 37.5250 -122.4239 337° Northwest 195 224 10,000  Level Oakland Center
10:25PM 37.5775 -122.4425 344° North 196 226 10,000  Level Oakland Center
10:26PM 37.6294 -122.4633 342° North 197 227 10,000 -120 Level Oakland Center
10:26PM 37.6500 -122.4667 353° North 196 226 9,900 -480 Descending Northern Cal TRACON
10:27PM 37.7000 -122.4833 345° North 209 241 9,400 -660 Descending Northern Cal TRACON
10:28PM 37.7667 -122.5167 338° Northwest 221 254 8,600 -780 Descending Northern Cal TRACON
10:30PM 37.8558 -122.5503 343° North 219 252 7,300 -720 Descending Oakland Center
10:31PM 37.9108 -122.5706 344° North 215 247 6,700 -600 Descending Oakland Center
10:32PM 37.9703 -122.5922 344° North 200 230 6,100 -720 Descending Oakland Center
10:33PM 38.0208 -122.6142 341° North 195 224 5,300 -900 Descending Oakland Center
10:34PM 38.0733 -122.6342 343° North 196 226 4,300 -720 Descending Oakland Center
10:35PM 38.1239 -122.6506 346° North 191 220 3,900 -600 Descending Oakland Center
10:36PM 38.1719 -122.6547 356° North 179 206 3,200 -480 Descending Oakland Center
10:37PM 38.2167 -122.6603 354° North 171 197 3,000 -120 Descending Oakland Center
10:38PM 38.2558 -122.6703 349° North 156 180 3,000  Level Oakland Center
10:39PM 38.2883 -122.6886 336° Northwest 140 161 3,100  Climbing Oakland Center
10:40PM 38.3211 -122.7081 335° Northwest 132 152 3,100 -240 Level Oakland Center
10:41PM 38.3625 -122.7314 336° Northwest 133 153 2,700 -480 Descending Oakland Center
10:42PM 38.3958 -122.7481 339° North 132 152 2,200 -480 Descending Oakland Center
10:43PM 38.4244 -122.7639 337° Northwest 123 142 1,800 -480 Descending Oakland Center
10:44PM 38.4522 -122.7789 337° Northwest 116 133 1,300 -540 Descending Oakland Center
10:45PM 38.4786 -122.7922 338° Northwest 108 124 800 -540 Descending Oakland Center